createdAt,value
2016-06-17T00:00:43.760Z,84.63
2016-06-17T00:01:43.795Z,84.82
2016-06-17T00:02:43.564Z,84.72
2016-06-17T00:03:43.582Z,84.53
2016-06-17T00:04:43.586Z,84.53
2016-06-17T00:05:43.653Z,84.72
2016-06-17T00:06:43.609Z,84.34
2016-06-17T00:07:43.612Z,84.72
2016-06-17T00:08:43.616Z,84.72
2016-06-17T00:09:43.635Z,84.63
2016-06-17T00:10:43.639Z,84.72
2016-06-17T00:11:43.642Z,84.72
2016-06-17T00:12:43.646Z,85.01
2016-06-17T00:13:43.664Z,84.53
2016-06-17T00:14:43.511Z,84.82
2016-06-17T00:15:43.671Z,84.63
2016-06-17T00:16:43.550Z,84.72
2016-06-17T00:17:43.538Z,85.01
2016-06-17T00:18:43.697Z,84.63
2016-06-17T00:19:43.717Z,84.63
2016-06-17T00:20:43.579Z,84.63
2016-06-17T00:21:43.958Z,84.72
2016-06-17T00:22:43.945Z,84.53
2016-06-17T00:23:43.746Z,85.21
2016-06-17T00:24:43.952Z,84.44
2016-06-17T00:25:43.769Z,85.11
2016-06-17T00:26:43.772Z,85.3
2016-06-17T00:27:44.182Z,85.01
2016-06-17T00:28:43.794Z,85.3
2016-06-17T00:29:43.797Z,85.21
2016-06-17T00:30:43.723Z,85.3
2016-06-17T00:31:44.226Z,84.72
2016-06-17T00:32:44.027Z,85.21
2016-06-17T00:33:43.827Z,85.01
2016-06-17T00:34:43.847Z,84.72
2016-06-17T00:35:43.865Z,85.3
2016-06-17T00:36:44.072Z,84.63
2016-06-17T00:37:44.154Z,84.53
2016-06-17T00:38:43.876Z,85.3
2016-06-17T00:39:44.145Z,85.3
2016-06-17T00:41:43.918Z,84.53
2016-06-17T00:42:43.906Z,84.53
2016-06-17T00:43:44.175Z,85.3
2016-06-17T00:44:58.006Z,84.53
2016-06-17T00:45:43.946Z,84.53
2016-06-17T00:46:43.997Z,84.72
2016-06-17T00:47:44.001Z,84.63
2016-06-17T00:48:43.973Z,84.72
2016-06-17T00:50:44.026Z,84.44
2016-06-17T00:51:44.060Z,84.72
2016-06-17T00:52:44.016Z,84.82
2016-06-17T00:53:44.050Z,84.82
2016-06-17T00:54:44.053Z,84.72
2016-06-17T00:55:44.072Z,84.63
2016-06-17T00:56:58.341Z,84.72
2016-06-17T00:57:58.126Z,84.82
2016-06-17T00:59:44.289Z,85.3
2016-06-17T01:00:58.761Z,84.82
2016-06-17T01:01:44.514Z,85.3
2016-06-17T01:02:44.112Z,85.01
2016-06-17T01:03:44.115Z,85.01
2016-06-17T01:04:44.118Z,84.72
2016-06-17T01:05:44.122Z,84.44
2016-06-17T01:06:44.313Z,85.3
2016-06-17T01:07:43.988Z,84.53
2016-06-17T01:08:44.148Z,85.3
2016-06-17T01:09:43.995Z,85.21
2016-06-17T01:11:44.174Z,84.53
2016-06-17T01:12:44.208Z,85.39
2016-06-17T01:13:44.211Z,84.72
2016-06-17T01:14:44.231Z,84.53
2016-06-17T01:15:44.235Z,84.63
2016-06-17T01:16:44.222Z,84.44
2016-06-17T01:18:44.229Z,85.39
2016-06-17T01:19:44.232Z,85.3
2016-06-17T01:20:44.252Z,84.53
2016-06-17T01:21:44.474Z,84.91
2016-06-17T01:22:44.273Z,85.39
2016-06-17T01:23:44.716Z,84.63
2016-06-17T01:24:44.280Z,85.21
2016-06-17T01:25:44.300Z,84.53
2016-06-17T01:26:44.304Z,84.72
2016-06-17T01:27:44.323Z,84.53
2016-06-17T01:28:44.169Z,85.01
2016-06-17T01:29:44.376Z,85.39
2016-06-17T01:30:44.348Z,84.63
2016-06-17T01:31:44.368Z,84.15
2016-06-17T01:32:44.778Z,85.39
2016-06-17T01:33:44.374Z,85.21
2016-06-17T01:34:44.565Z,85.21
2016-06-17T01:35:44.569Z,85.11
2016-06-17T01:36:44.401Z,85.11
2016-06-17T01:37:44.404Z,85.01
2016-06-17T01:38:44.440Z,84.91
2016-06-17T01:39:44.426Z,84.25
2016-06-17T01:40:44.446Z,84.82
2016-06-17T01:41:44.450Z,84.91
2016-06-17T01:42:44.656Z,85.01
2016-06-17T01:43:44.910Z,84.91
2016-06-17T01:44:44.491Z,85.21
2016-06-17T01:45:44.525Z,85.01
2016-06-17T01:46:44.717Z,84.91
2016-06-17T01:47:44.736Z,85.3
2016-06-17T01:48:44.535Z,85.3
2016-06-17T01:49:44.508Z,84.53
2016-06-17T01:50:44.528Z,84.91
2016-06-17T01:51:44.562Z,84.91
2016-06-17T01:52:44.566Z,84.91
2016-06-17T01:53:44.428Z,85.01
2016-06-17T01:54:58.634Z,85.49
2016-06-17T01:55:58.841Z,85.21
2016-06-17T01:56:44.644Z,85.39
2016-06-17T01:57:44.602Z,85.21
2016-06-17T01:58:44.606Z,85.21
2016-06-17T01:59:44.455Z,85.21
2016-06-17T02:00:44.632Z,85.11
2016-06-17T02:01:44.839Z,85.49
2016-06-17T02:02:45.046Z,85.3
2016-06-17T02:03:44.847Z,85.21
2016-06-17T02:04:44.897Z,85.21
2016-06-17T02:05:44.667Z,85.11
2016-06-17T02:06:44.686Z,85.49
2016-06-17T02:07:45.097Z,85.21
2016-06-17T02:08:44.694Z,85.3
2016-06-17T02:09:44.713Z,85.01
2016-06-17T02:10:44.717Z,85.3
2016-06-17T02:11:44.705Z,85.16
2016-06-17T02:12:44.928Z,85.21
2016-06-17T02:13:44.727Z,85.01
2016-06-17T02:14:44.747Z,85.01
2016-06-17T02:15:44.750Z,85.01
2016-06-17T02:16:44.613Z,85.3
2016-06-17T02:17:44.758Z,85.3
2016-06-17T02:18:45.026Z,85.88
2016-06-17T02:19:44.842Z,85.49
2016-06-17T02:20:44.377Z,85.39
2016-06-17T02:21:44.850Z,85.58
2016-06-17T02:22:44.883Z,85.49
2016-06-17T02:23:44.856Z,84.91
2016-06-17T02:24:44.860Z,85.68
2016-06-17T02:25:44.910Z,85.39
2016-06-17T02:26:45.054Z,85.39
2016-06-17T02:27:58.933Z,85.39
2016-06-17T02:28:44.888Z,85.35
2016-06-17T02:29:44.892Z,85.45
2016-06-17T02:30:45.084Z,85.54
2016-06-17T02:31:45.118Z,85.54
2016-06-17T02:32:45.122Z,85.45
2016-06-17T02:33:44.937Z,85.45
2016-06-17T02:34:44.941Z,85.54
2016-06-17T02:35:44.929Z,85.93
2016-06-17T02:36:44.964Z,85.74
2016-06-17T02:37:44.951Z,85.64
2016-06-17T02:38:44.970Z,85.54
2016-06-17T02:39:44.974Z,85.74
2016-06-17T02:40:44.977Z,85.54
2016-06-17T02:42:44.984Z,85.54
2016-06-17T02:43:44.987Z,85.83
2016-06-17T02:44:44.991Z,85.83
2016-06-17T02:45:45.011Z,85.54
2016-06-17T02:46:45.014Z,85.74
2016-06-17T02:47:45.032Z,85.83
2016-06-17T02:48:45.036Z,85.64
2016-06-17T02:49:45.039Z,85.45
2016-06-17T02:51:45.062Z,85.54
2016-06-17T02:52:45.065Z,86.12
2016-06-17T02:53:45.069Z,85.54
2016-06-17T02:54:45.089Z,85.83
2016-06-17T02:55:45.732Z,86.21
2016-06-17T02:56:45.438Z,85.93
2016-06-17T02:57:45.114Z,86.12
2016-06-17T02:58:45.180Z,85.83
2016-06-17T02:59:44.965Z,85.79
2016-06-17T03:00:45.124Z,86.21
2016-06-17T03:01:45.128Z,85.88
2016-06-17T03:02:45.350Z,86.08
2016-06-17T03:03:45.182Z,85.83
2016-06-17T03:04:45.170Z,86.02
2016-06-17T03:05:45.424Z,86.17
2016-06-17T03:06:45.411Z,86.08
2016-06-17T03:07:45.180Z,85.79
2016-06-17T03:08:45.199Z,85.88
2016-06-17T03:10:45.206Z,85.69
2016-06-17T03:11:45.459Z,85.88
2016-06-17T03:12:45.244Z,85.88
2016-06-17T03:13:45.263Z,85.98
2016-06-17T03:14:44.798Z,86.17
2016-06-17T03:15:45.286Z,86.17
2016-06-17T03:16:45.258Z,86.17
2016-06-17T03:17:45.293Z,85.79
2016-06-17T03:18:45.296Z,86.27
2016-06-17T03:19:59.347Z,85.79
2016-06-17T03:20:45.318Z,85.88
2016-06-17T03:21:45.307Z,85.98
2016-06-17T03:22:45.545Z,86.08
2016-06-17T03:23:45.329Z,85.69
2016-06-17T03:24:45.332Z,85.88
2016-06-17T03:25:45.758Z,85.88
2016-06-17T03:26:59.605Z,85.69
2016-06-17T03:27:45.562Z,85.79
2016-06-17T03:28:45.362Z,85.69
2016-06-17T03:29:45.366Z,85.88
2016-06-17T03:30:45.416Z,85.5
2016-06-17T03:31:45.591Z,85.31
2016-06-17T03:32:45.392Z,85.88
2016-06-17T03:33:45.395Z,85.98
2016-06-17T03:34:45.429Z,86.17
2016-06-17T03:35:45.418Z,85.98
2016-06-17T03:36:59.498Z,85.69
2016-06-17T03:37:45.268Z,86.08
2016-06-17T03:38:45.444Z,85.79
2016-06-17T03:39:45.667Z,85.79
2016-06-17T03:40:45.653Z,85.88
2016-06-17T03:41:45.688Z,85.69
2016-06-17T03:42:45.691Z,86.17
2016-06-17T03:43:45.461Z,86.17
2016-06-17T03:44:45.684Z,86.27
2016-06-17T03:45:45.687Z,85.79
2016-06-17T03:46:45.487Z,85.88
2016-06-17T03:47:45.537Z,86.27
2016-06-17T03:48:45.713Z,85.88
2016-06-17T03:49:45.356Z,86.17
2016-06-17T03:50:45.079Z,85.98
2016-06-17T03:51:45.520Z,86.17
2016-06-17T03:52:45.742Z,86.36
2016-06-17T03:53:45.761Z,85.88
2016-06-17T03:54:45.389Z,86.08
2016-06-17T03:55:45.549Z,86.32
2016-06-17T03:56:45.771Z,86.99
2016-06-17T03:57:45.775Z,86.94
2016-06-17T03:59:45.594Z,86.7
2016-06-17T04:00:45.598Z,86.9
2016-06-17T04:01:45.804Z,86.7
2016-06-17T04:02:45.652Z,86.61
2016-06-17T04:03:45.608Z,86.99
2016-06-17T04:04:45.830Z,86.61
2016-06-17T04:05:46.084Z,86.7
2016-06-17T04:06:45.650Z,86.7
2016-06-17T04:07:45.653Z,86.32
2016-06-17T04:08:45.656Z,86.61
2016-06-17T04:09:45.660Z,86.13
2016-06-17T04:10:45.866Z,86.99
2016-06-17T04:11:45.683Z,87.27
2016-06-17T04:12:45.704Z,86.41
2016-06-17T04:13:45.540Z,86.9
2016-06-17T04:15:45.725Z,86.32
2016-06-17T04:16:45.747Z,86.99
2016-06-17T04:17:45.737Z,87.37
2016-06-17T04:18:45.757Z,87.08
2016-06-17T04:19:45.762Z,87.37
2016-06-17T04:20:45.766Z,87.18
2016-06-17T04:21:45.771Z,87.18
2016-06-17T04:22:46.010Z,87.08
2016-06-17T04:23:49.232Z,87.18
2016-06-17T04:24:45.814Z,86.99
2016-06-17T04:25:45.803Z,87.27
2016-06-17T04:27:46.013Z,87.27
2016-06-17T04:28:45.829Z,86.99
2016-06-17T04:30:46.056Z,87.37
2016-06-17T04:31:45.856Z,87.08
2016-06-17T04:32:46.267Z,87.37
2016-06-17T04:33:45.394Z,87.66
2016-06-17T04:34:45.851Z,87.18
2016-06-17T04:35:46.074Z,86.99
2016-06-17T04:36:45.875Z,87.47
2016-06-17T04:37:45.893Z,86.9
2016-06-17T04:38:46.084Z,87.85
2016-06-17T04:39:45.900Z,87.08
2016-06-17T04:40:45.919Z,87.18
2016-06-17T04:41:45.908Z,86.99
2016-06-17T04:42:45.925Z,87.27
2016-06-17T04:43:46.382Z,87.08
2016-06-17T04:44:45.932Z,86.99
2016-06-17T04:45:45.937Z,86.99
2016-06-17T04:46:46.143Z,86.99
2016-06-17T04:47:45.960Z,87.08
2016-06-17T04:48:45.993Z,86.99
2016-06-17T04:49:45.981Z,87.08
2016-06-17T04:50:46.047Z,87.18
2016-06-17T04:51:45.973Z,87.18
2016-06-17T04:52:45.836Z,87.08
2016-06-17T04:53:45.839Z,87.08
2016-06-17T04:54:45.998Z,87.08
2016-06-17T04:55:46.018Z,86.99
2016-06-17T04:56:46.006Z,87.27
2016-06-17T04:57:45.869Z,87.37
2016-06-17T04:58:46.029Z,87.27
2016-06-17T04:59:46.031Z,87.08
2016-06-17T05:00:45.894Z,87.08
2016-06-17T05:01:46.055Z,87.08
2016-06-17T05:02:46.058Z,87.08
2016-06-17T05:03:46.062Z,87.18
2016-06-17T05:04:46.080Z,87.27
2016-06-17T05:05:46.083Z,87.18
2016-06-17T05:06:46.087Z,87.56
2016-06-17T05:07:46.107Z,87.18
2016-06-17T05:08:46.110Z,87.37
2016-06-17T05:09:46.130Z,87.47
2016-06-17T05:10:46.132Z,87.18
2016-06-17T05:11:46.151Z,87.27
2016-06-17T05:13:00.202Z,87.18
2016-06-17T05:13:46.174Z,87.08
2016-06-17T05:14:46.147Z,87.08
2016-06-17T05:15:46.181Z,87.37
2016-06-17T05:16:46.184Z,87.18
2016-06-17T05:17:46.391Z,87.27
2016-06-17T05:18:45.956Z,87.08
2016-06-17T05:19:46.179Z,87.08
2016-06-17T05:20:46.199Z,86.9
2016-06-17T05:21:46.216Z,87.08
2016-06-17T05:22:46.439Z,86.8
2016-06-17T05:23:45.755Z,86.99
2016-06-17T05:24:46.431Z,86.99
2016-06-17T05:25:46.216Z,86.7
2016-06-17T05:26:46.250Z,86.9
2016-06-17T05:27:46.238Z,86.8
2016-06-17T05:28:46.241Z,86.99
2016-06-17T05:29:46.245Z,86.99
2016-06-17T05:30:46.264Z,86.9
2016-06-17T05:31:46.268Z,86.7
2016-06-17T05:33:46.118Z,86.8
2016-06-17T05:35:46.297Z,86.99
2016-06-17T05:36:46.301Z,86.41
2016-06-17T05:37:46.304Z,86.7
2016-06-17T05:38:46.308Z,86.9
2016-06-17T05:39:46.404Z,86.8
2016-06-17T05:40:46.532Z,86.7
2016-06-17T05:41:46.333Z,86.61
2016-06-17T05:42:46.539Z,86.61
2016-06-17T05:43:46.356Z,86.7
2016-06-17T05:44:46.359Z,86.7
2016-06-17T05:45:46.363Z,86.51
2016-06-17T05:46:46.366Z,86.61
2016-06-17T05:47:46.386Z,86.61
2016-06-17T05:48:46.389Z,86.7
2016-06-17T05:49:46.596Z,86.51
2016-06-17T05:50:46.239Z,86.61
2016-06-17T05:52:46.418Z,86.7
2016-06-17T05:53:46.640Z,86.9
2016-06-17T05:54:46.441Z,86.61
2016-06-17T05:55:46.444Z,86.61
2016-06-17T05:56:46.448Z,86.51
2016-06-17T05:57:46.466Z,86.61
2016-06-17T05:58:46.469Z,86.61
2016-06-17T05:59:46.474Z,86.61
2016-06-17T06:00:46.680Z,86.61
2016-06-17T06:01:46.496Z,86.7
2016-06-17T06:03:46.503Z,86.65
2016-06-17T06:04:46.381Z,86.51
2016-06-17T06:05:46.525Z,86.61
2016-06-17T06:06:46.935Z,86.51
2016-06-17T06:07:46.751Z,86.7
2016-06-17T06:08:46.568Z,86.7
2016-06-17T06:09:46.570Z,86.61
2016-06-17T06:10:46.777Z,86.51
2016-06-17T06:11:46.561Z,86.61
2016-06-17T06:12:46.597Z,86.61
2016-06-17T06:13:46.601Z,86.7
2016-06-17T06:14:46.994Z,86.51
2016-06-17T06:15:46.622Z,86.65
2016-06-17T06:16:46.798Z,86.7
2016-06-17T06:17:46.598Z,86.84
2016-06-17T06:18:46.711Z,86.65
2016-06-17T06:19:46.622Z,86.7
2016-06-17T06:20:47.045Z,86.65
2016-06-17T06:21:46.832Z,86.9
2016-06-17T06:22:46.834Z,86.7
2016-06-17T06:23:46.650Z,86.7
2016-06-17T06:24:47.264Z,86.61
2016-06-17T06:25:46.876Z,86.8
2016-06-17T06:26:46.521Z,86.8
2016-06-17T06:27:46.680Z,86.7
2016-06-17T06:28:46.934Z,86.8
2016-06-17T06:29:46.551Z,86.61
2016-06-17T06:30:47.123Z,86.74
2016-06-17T06:31:46.943Z,86.61
2016-06-17T06:32:46.749Z,87.08
2016-06-17T06:33:47.163Z,86.8
2016-06-17T06:34:47.371Z,86.8
2016-06-17T06:35:47.439Z,86.61
2016-06-17T06:36:47.194Z,86.9
2016-06-17T06:37:47.057Z,86.55
2016-06-17T06:39:47.458Z,86.74
2016-06-17T06:40:47.088Z,86.32
2016-06-17T06:41:46.685Z,86.7
2016-06-17T06:42:46.705Z,86.32
2016-06-17T06:43:46.819Z,86.7
2016-06-17T06:44:47.478Z,86.7
2016-06-17T06:45:46.716Z,86.99
2016-06-17T06:46:47.079Z,86.7
2016-06-17T06:47:46.880Z,86.99
2016-06-17T06:48:47.289Z,86.9
2016-06-17T06:49:46.776Z,86.7
2016-06-17T06:50:47.296Z,87.51
2016-06-17T06:51:46.908Z,87.03
2016-06-17T06:52:47.131Z,87.03
2016-06-17T06:53:46.932Z,86.94
2016-06-17T06:54:47.122Z,86.74
2016-06-17T06:55:47.158Z,86.55
2016-06-17T06:56:47.347Z,86.65
2016-06-17T06:57:47.148Z,86.55
2016-06-17T06:58:46.964Z,86.08
2016-06-17T07:00:01.264Z,86.65
2016-06-17T07:00:46.971Z,86.74
2016-06-17T07:01:46.818Z,86.27
2016-06-17T07:02:46.977Z,86.94
2016-06-17T07:03:47.012Z,86.74
2016-06-17T07:04:46.875Z,86.74
2016-06-17T07:05:47.020Z,86.9
2016-06-17T07:06:46.633Z,86.55
2016-06-17T07:07:47.010Z,86.55
2016-06-17T07:09:47.048Z,86.74
2016-06-17T07:10:47.287Z,86.65
2016-06-17T07:11:47.056Z,86.65
2016-06-17T07:12:47.075Z,86.55
2016-06-17T07:13:47.282Z,86.65
2016-06-17T07:14:47.066Z,86.84
2016-06-17T07:15:47.085Z,86.94
2016-06-17T07:17:01.151Z,86.65
2016-06-17T07:18:01.171Z,86.74
2016-06-17T07:18:47.126Z,86.74
2016-06-17T07:20:47.352Z,86.84
2016-06-17T07:21:47.325Z,86.46
2016-06-17T07:22:46.672Z,86.84
2016-06-17T07:23:47.145Z,86.84
2016-06-17T07:24:47.148Z,86.65
2016-06-17T07:25:47.182Z,86.74
2016-06-17T07:26:47.154Z,86.94
2016-06-17T07:27:47.174Z,86.65
2016-06-17T07:28:47.193Z,86.41
2016-06-17T07:30:47.529Z,85.83
2016-06-17T07:31:47.202Z,86.17
2016-06-17T07:32:47.206Z,85.93
2016-06-17T07:33:47.617Z,86.12
2016-06-17T07:34:47.214Z,85.54
2016-06-17T07:35:47.421Z,85.83
2016-06-17T07:36:47.439Z,85.54
2016-06-17T07:37:47.442Z,85.54
2016-06-17T07:38:47.462Z,85.45
2016-06-17T07:39:47.262Z,85.25
2016-06-17T07:40:47.469Z,85.35
2016-06-17T07:41:47.270Z,85.64
2016-06-17T07:42:47.272Z,85.25
2016-06-17T07:43:47.291Z,84.97
2016-06-17T07:44:47.295Z,85.16
2016-06-17T07:45:47.314Z,84.97
2016-06-17T07:46:47.365Z,85.16
2016-06-17T07:47:47.524Z,85.25
2016-06-17T07:48:47.325Z,84.97
2016-06-17T07:49:47.344Z,84.91
2016-06-17T07:50:47.565Z,84.78
2016-06-17T07:51:47.366Z,84.58
2016-06-17T07:52:47.558Z,84.78
2016-06-17T07:53:47.373Z,84.68
2016-06-17T07:54:47.595Z,84.72
2016-06-17T07:55:47.755Z,84.49
2016-06-17T07:56:47.399Z,84.68
2016-06-17T07:57:47.497Z,84.78
2016-06-17T07:58:47.421Z,84.63
2016-06-17T07:59:47.629Z,84.82
2016-06-17T08:04:56.256Z,84.05
2016-06-17T08:05:56.260Z,83.38
2016-06-17T08:06:56.231Z,83.29
2016-06-17T08:07:56.234Z,83.58
2016-06-17T08:08:55.816Z,83.76
2016-06-17T08:09:55.616Z,83.76
2016-06-17T08:10:56.277Z,83.86
2016-06-17T08:11:55.671Z,83.67
2016-06-17T08:12:55.657Z,83.29
2016-06-17T08:13:56.286Z,83
2016-06-17T08:14:56.305Z,83.58
2016-06-17T08:15:55.700Z,82.9
2016-06-17T08:16:55.687Z,83
2016-06-17T08:17:55.691Z,82.9
2016-06-17T08:18:56.554Z,82.81
2016-06-17T08:19:55.714Z,82.71
2016-06-17T08:21:10.545Z,82.62
2016-06-17T08:21:56.596Z,83.09
2016-06-17T08:22:55.942Z,82.42
2016-06-17T08:23:58.556Z,82.62
2016-06-17T08:24:56.621Z,82.81
2016-06-17T08:26:10.578Z,83.19
2016-06-17T08:26:56.441Z,82.52
2016-06-17T08:28:56.854Z,82.85
2016-06-17T08:29:56.671Z,82.75
2016-06-17T08:30:56.720Z,82.65
2016-06-17T08:31:55.849Z,83.04
2016-06-17T08:32:56.463Z,82.56
2016-06-17T08:34:11.060Z,82.46
2016-06-17T08:34:55.845Z,82.94
2016-06-17T08:35:56.909Z,82.56
2016-06-17T08:36:56.491Z,82.56
2016-06-17T08:37:56.745Z,82.08
2016-06-17T08:38:56.186Z,82.18
2016-06-17T08:39:56.518Z,82.46
2016-06-17T08:40:56.521Z,82.52
2016-06-17T08:41:56.540Z,82.56
2016-06-17T08:42:56.559Z,82.46
2016-06-17T08:43:56.562Z,82.52
2016-06-17T08:44:24.984Z,82.81
